sensor_id;sensor_type;location;lat;lon;timestamp;pressure;altitude;pressure_sealevel;temperature;humidity
84255;BME280;74400;44.692;18.998;2024-01-25T00:00:21;100536.41;;;5.89;62.47
84255;BME280;74400;44.692;18.998;2024-01-25T00:02:46;100533.94;;;5.86;63.44
84255;BME280;74400;44.692;18.998;2024-01-25T00:05:12;100524.69;;;5.83;63.49
84255;BME280;74400;44.692;18.998;2024-01-25T00:10:16;100529.94;;;5.80;63.30
84255;BME280;74400;44.692;18.998;2024-01-25T00:12:41;100528.06;;;5.84;63.32
84255;BME280;74400;44.692;18.998;2024-01-25T00:15:10;100524.63;;;5.85;63.09
84255;BME280;74400;44.692;18.998;2024-01-25T00:17:36;100522.03;;;5.86;63.02
84255;BME280;74400;44.692;18.998;2024-01-25T00:20:03;100540.56;;;5.93;63.18
84255;BME280;74400;44.692;18.998;2024-01-25T00:22:29;100553.97;;;5.98;62.75
84255;BME280;74400;44.692;18.998;2024-01-25T00:24:55;100565.81;;;6.01;62.40
84255;BME280;74400;44.692;18.998;2024-01-25T00:27:20;100568.84;;;6.10;62.64
84255;BME280;74400;44.692;18.998;2024-01-25T00:29:46;100564.75;;;6.06;63.25
84255;BME280;74400;44.692;18.998;2024-01-25T00:32:11;100566.41;;;6.07;63.56
84255;BME280;74400;44.692;18.998;2024-01-25T00:34:37;100563.66;;;6.13;62.55
84255;BME280;74400;44.692;18.998;2024-01-25T00:37:03;100570.69;;;6.07;63.15
84255;BME280;74400;44.692;18.998;2024-01-25T00:39:29;100572.13;;;6.14;62.84
84255;BME280;74400;44.692;18.998;2024-01-25T00:42:02;100568.69;;;6.15;63.22
84255;BME280;74400;44.692;18.998;2024-01-25T00:44:30;100567.63;;;6.20;62.32
84255;BME280;74400;44.692;18.998;2024-01-25T00:46:56;100561.34;;;6.29;64.55
84255;BME280;74400;44.692;18.998;2024-01-25T00:49:22;100564.31;;;6.18;64.98
84255;BME280;74400;44.692;18.998;2024-01-25T00:54:14;100574.16;;;6.06;67.19
84255;BME280;74400;44.692;18.998;2024-01-25T00:56:41;100584.66;;;5.96;68.13
84255;BME280;74400;44.692;18.998;2024-01-25T00:59:06;100589.34;;;5.84;69.50
84255;BME280;74400;44.692;18.998;2024-01-25T01:01:32;100581.75;;;5.57;71.33
84255;BME280;74400;44.692;18.998;2024-01-25T01:03:59;100587.63;;;5.34;72.00
84255;BME280;74400;44.692;18.998;2024-01-25T01:06:25;100590.53;;;5.24;73.51
84255;BME280;74400;44.692;18.998;2024-01-25T01:08:51;100601.91;;;5.13;74.27
84255;BME280;74400;44.692;18.998;2024-01-25T01:11:18;100610.44;;;5.12;74.91
84255;BME280;74400;44.692;18.998;2024-01-25T01:13:44;100611.31;;;5.11;75.59
84255;BME280;74400;44.692;18.998;2024-01-25T01:16:10;100582.34;;;5.14;76.10
84255;BME280;74400;44.692;18.998;2024-01-25T01:18:36;100577.41;;;5.09;75.69
84255;BME280;74400;44.692;18.998;2024-01-25T01:21:04;100570.59;;;5.10;76.79
84255;BME280;74400;44.692;18.998;2024-01-25T01:23:30;100568.50;;;5.21;75.86
84255;BME280;74400;44.692;18.998;2024-01-25T01:25:55;100556.94;;;5.11;77.00
84255;BME280;74400;44.692;18.998;2024-01-25T01:28:21;100569.94;;;5.03;78.08
84255;BME280;74400;44.692;18.998;2024-01-25T01:30:47;100583.16;;;5.14;78.06
84255;BME280;74400;44.692;18.998;2024-01-25T01:33:12;100576.13;;;5.23;77.39
84255;BME280;74400;44.692;18.998;2024-01-25T01:35:38;100568.06;;;5.08;77.85
84255;BME280;74400;44.692;18.998;2024-01-25T01:38:04;100564.28;;;4.94;77.94
84255;BME280;74400;44.692;18.998;2024-01-25T01:40:29;100562.44;;;4.99;78.49
84255;BME280;74400;44.692;18.998;2024-01-25T01:42:59;100570.22;;;4.94;78.88
84255;BME280;74400;44.692;18.998;2024-01-25T01:45:26;100575.31;;;4.94;79.38
84255;BME280;74400;44.692;18.998;2024-01-25T01:47:52;100571.06;;;4.95;79.25
84255;BME280;74400;44.692;18.998;2024-01-25T01:50:18;100576.78;;;5.01;79.74
84255;BME280;74400;44.692;18.998;2024-01-25T01:52:45;100564.84;;;5.03;80.10
84255;BME280;74400;44.692;18.998;2024-01-25T01:55:11;100554.53;;;5.06;80.35
84255;BME280;74400;44.692;18.998;2024-01-25T01:57:37;100567.78;;;5.18;79.28
84255;BME280;74400;44.692;18.998;2024-01-25T02:00:03;100559.56;;;5.09;80.86
84255;BME280;74400;44.692;18.998;2024-01-25T02:02:37;100531.59;;;5.06;81.13
84255;BME280;74400;44.692;18.998;2024-01-25T02:05:02;100539.19;;;5.08;80.66
84255;BME280;74400;44.692;18.998;2024-01-25T02:07:29;100538.34;;;5.09;80.32
84255;BME280;74400;44.692;18.998;2024-01-25T02:09:55;100540.81;;;5.10;81.89
84255;BME280;74400;44.692;18.998;2024-01-25T02:12:21;100517.94;;;5.09;81.41
84255;BME280;74400;44.692;18.998;2024-01-25T02:14:47;100524.56;;;5.13;80.62
84255;BME280;74400;44.692;18.998;2024-01-25T02:17:12;100540.72;;;5.13;81.55
84255;BME280;74400;44.692;18.998;2024-01-25T02:19:38;100539.78;;;5.16;82.16
84255;BME280;74400;44.692;18.998;2024-01-25T02:22:04;100542.47;;;5.11;82.61
84255;BME280;74400;44.692;18.998;2024-01-25T02:24:30;100543.84;;;5.22;81.41
84255;BME280;74400;44.692;18.998;2024-01-25T02:26:56;100550.81;;;5.16;81.30
84255;BME280;74400;44.692;18.998;2024-01-25T02:29:22;100542.28;;;5.18;82.42
84255;BME280;74400;44.692;18.998;2024-01-25T02:31:48;100535.34;;;5.21;81.44
84255;BME280;74400;44.692;18.998;2024-01-25T02:34:14;100538.63;;;5.25;81.42
84255;BME280;74400;44.692;18.998;2024-01-25T02:36:40;100527.66;;;5.23;80.72
84255;BME280;74400;44.692;18.998;2024-01-25T02:39:06;100513.56;;;5.12;80.98
84255;BME280;74400;44.692;18.998;2024-01-25T02:41:32;100509.69;;;5.01;82.42
84255;BME280;74400;44.692;18.998;2024-01-25T02:43:58;100525.72;;;5.04;82.99
84255;BME280;74400;44.692;18.998;2024-01-25T02:46:23;100544.91;;;5.14;84.24
84255;BME280;74400;44.692;18.998;2024-01-25T02:48:49;100568.47;;;5.23;83.38
84255;BME280;74400;44.692;18.998;2024-01-25T02:51:15;100579.56;;;5.22;83.83
84255;BME280;74400;44.692;18.998;2024-01-25T02:53:40;100571.56;;;5.06;82.05
84255;BME280;74400;44.692;18.998;2024-01-25T02:56:07;100571.63;;;5.04;81.96
84255;BME280;74400;44.692;18.998;2024-01-25T02:58:33;100558.75;;;5.07;82.30
84255;BME280;74400;44.692;18.998;2024-01-25T03:00:58;100561.94;;;5.14;82.51
84255;BME280;74400;44.692;18.998;2024-01-25T03:03:24;100555.81;;;5.20;82.51
84255;BME280;74400;44.692;18.998;2024-01-25T03:05:53;100552.16;;;5.27;80.98
84255;BME280;74400;44.692;18.998;2024-01-25T03:08:19;100533.47;;;5.26;83.20
84255;BME280;74400;44.692;18.998;2024-01-25T03:10:46;100507.06;;;5.29;80.49
84255;BME280;74400;44.692;18.998;2024-01-25T03:13:14;100557.66;;;5.14;81.96
84255;BME280;74400;44.692;18.998;2024-01-25T03:15:39;100545.13;;;5.08;83.69
84255;BME280;74400;44.692;18.998;2024-01-25T03:18:05;100554.47;;;5.08;82.69
84255;BME280;74400;44.692;18.998;2024-01-25T03:20:31;100559.50;;;5.11;80.92
84255;BME280;74400;44.692;18.998;2024-01-25T03:22:56;100573.91;;;5.12;81.09
84255;BME280;74400;44.692;18.998;2024-01-25T03:25:22;100582.19;;;5.19;80.51
84255;BME280;74400;44.692;18.998;2024-01-25T03:30:14;100550.31;;;5.32;78.88
84255;BME280;74400;44.692;18.998;2024-01-25T03:32:40;100553.81;;;5.28;79.08
84255;BME280;74400;44.692;18.998;2024-01-25T03:35:05;100568.47;;;5.23;79.79
84255;BME280;74400;44.692;18.998;2024-01-25T03:37:31;100573.38;;;5.29;79.17
84255;BME280;74400;44.692;18.998;2024-01-25T03:39:57;100550.41;;;5.29;79.62
84255;BME280;74400;44.692;18.998;2024-01-25T03:42:23;100529.47;;;5.19;79.64
84255;BME280;74400;44.692;18.998;2024-01-25T03:44:48;100511.81;;;5.13;79.71
84255;BME280;74400;44.692;18.998;2024-01-25T03:47:14;100539.88;;;5.13;80.35
84255;BME280;74400;44.692;18.998;2024-01-25T03:49:40;100533.66;;;5.22;79.48
84255;BME280;74400;44.692;18.998;2024-01-25T03:52:06;100536.78;;;5.30;79.67
84255;BME280;74400;44.692;18.998;2024-01-25T03:54:31;100540.63;;;5.41;78.70
84255;BME280;74400;44.692;18.998;2024-01-25T03:56:57;100540.38;;;5.49;78.14
84255;BME280;74400;44.692;18.998;2024-01-25T03:59:23;100535.09;;;5.54;78.31
84255;BME280;74400;44.692;18.998;2024-01-25T04:01:48;100525.16;;;5.46;78.71
84255;BME280;74400;44.692;18.998;2024-01-25T04:04:15;100522.81;;;5.40;78.38
84255;BME280;74400;44.692;18.998;2024-01-25T04:06:41;100541.25;;;5.48;78.00
84255;BME280;74400;44.692;18.998;2024-01-25T04:09:11;100555.00;;;5.44;77.94
84255;BME280;74400;44.692;18.998;2024-01-25T04:11:37;100537.13;;;5.44;78.36
84255;BME280;74400;44.692;18.998;2024-01-25T04:14:04;100525.25;;;5.68;77.29
84255;BME280;74400;44.692;18.998;2024-01-25T04:16:30;100520.09;;;5.69;76.78
84255;BME280;74400;44.692;18.998;2024-01-25T04:18:56;100528.41;;;5.75;76.59
84255;BME280;74400;44.692;18.998;2024-01-25T04:21:22;100513.81;;;5.78;76.76
84255;BME280;74400;44.692;18.998;2024-01-25T04:26:15;100502.19;;;5.94;75.32
84255;BME280;74400;44.692;18.998;2024-01-25T04:28:42;100512.47;;;5.93;74.66
84255;BME280;74400;44.692;18.998;2024-01-25T04:31:07;100529.22;;;6.00;73.74
84255;BME280;74400;44.692;18.998;2024-01-25T04:33:33;100545.75;;;6.13;73.82
84255;BME280;74400;44.692;18.998;2024-01-25T04:35:59;100539.59;;;6.19;73.06
84255;BME280;74400;44.692;18.998;2024-01-25T04:38:25;100538.41;;;6.28;72.23
84255;BME280;74400;44.692;18.998;2024-01-25T04:40:50;100535.72;;;6.31;71.66
84255;BME280;74400;44.692;18.998;2024-01-25T04:43:16;100528.63;;;6.39;71.44
84255;BME280;74400;44.692;18.998;2024-01-25T04:45:42;100524.72;;;6.52;70.31
84255;BME280;74400;44.692;18.998;2024-01-25T04:48:08;100525.22;;;6.60;69.71
84255;BME280;74400;44.692;18.998;2024-01-25T04:50:34;100509.41;;;6.72;70.26
84255;BME280;74400;44.692;18.998;2024-01-25T04:53:01;100496.75;;;6.69;70.22
84255;BME280;74400;44.692;18.998;2024-01-25T04:55:27;100513.81;;;6.69;70.43
84255;BME280;74400;44.692;18.998;2024-01-25T04:57:53;100519.88;;;6.66;70.63
84255;BME280;74400;44.692;18.998;2024-01-25T05:00:21;100523.84;;;6.73;70.25
84255;BME280;74400;44.692;18.998;2024-01-25T05:02:47;100536.81;;;6.69;70.87
84255;BME280;74400;44.692;18.998;2024-01-25T05:05:13;100545.31;;;6.69;69.83
84255;BME280;74400;44.692;18.998;2024-01-25T05:07:39;100563.34;;;6.66;70.06
84255;BME280;74400;44.692;18.998;2024-01-25T05:10:05;100568.38;;;6.68;70.68
84255;BME280;74400;44.692;18.998;2024-01-25T05:12:31;100565.59;;;6.74;70.75
84255;BME280;74400;44.692;18.998;2024-01-25T05:14:58;100549.81;;;6.63;70.85
84255;BME280;74400;44.692;18.998;2024-01-25T05:17:23;100534.63;;;6.60;71.55
84255;BME280;74400;44.692;18.998;2024-01-25T05:19:49;100526.91;;;6.61;71.53
84255;BME280;74400;44.692;18.998;2024-01-25T05:22:15;100514.53;;;6.72;70.64
84255;BME280;74400;44.692;18.998;2024-01-25T05:24:41;100508.53;;;6.94;68.50
84255;BME280;74400;44.692;18.998;2024-01-25T05:27:07;100491.09;;;7.24;66.84
84255;BME280;74400;44.692;18.998;2024-01-25T05:29:33;100489.50;;;7.42;65.26
84255;BME280;74400;44.692;18.998;2024-01-25T05:35:15;100489.94;;;7.70;64.30
84255;BME280;74400;44.692;18.998;2024-01-25T05:37:41;100495.53;;;7.78;63.18
84255;BME280;74400;44.692;18.998;2024-01-25T05:40:08;100497.41;;;7.75;64.09
84255;BME280;74400;44.692;18.998;2024-01-25T05:42:35;100504.47;;;7.70;64.91
84255;BME280;74400;44.692;18.998;2024-01-25T05:45:02;100516.06;;;7.58;66.01
84255;BME280;74400;44.692;18.998;2024-01-25T05:47:29;100507.06;;;7.49;66.45
84255;BME280;74400;44.692;18.998;2024-01-25T05:49:57;100513.47;;;7.39;66.91
84255;BME280;74400;44.692;18.998;2024-01-25T05:52:23;100512.72;;;7.37;66.56
84255;BME280;74400;44.692;18.998;2024-01-25T05:58:49;100486.84;;;7.43;66.10
84255;BME280;74400;44.692;18.998;2024-01-25T06:01:15;100486.84;;;7.43;65.39
84255;BME280;74400;44.692;18.998;2024-01-25T06:03:49;100490.06;;;7.48;65.82
84255;BME280;74400;44.692;18.998;2024-01-25T06:06:16;100487.31;;;7.32;67.72
84255;BME280;74400;44.692;18.998;2024-01-25T06:08:42;100474.09;;;7.23;67.69
84255;BME280;74400;44.692;18.998;2024-01-25T06:11:11;100483.88;;;7.13;67.30
84255;BME280;74400;44.692;18.998;2024-01-25T06:13:37;100504.00;;;7.21;67.11
84255;BME280;74400;44.692;18.998;2024-01-25T06:16:03;100518.47;;;7.22;67.93
84255;BME280;74400;44.692;18.998;2024-01-25T06:18:29;100521.34;;;7.14;68.37
84255;BME280;74400;44.692;18.998;2024-01-25T06:21:33;100514.81;;;7.07;67.95
84255;BME280;74400;44.692;18.998;2024-01-25T06:24:04;100495.50;;;7.20;68.54
84255;BME280;74400;44.692;18.998;2024-01-25T06:26:30;100512.78;;;7.36;67.30
84255;BME280;74400;44.692;18.998;2024-01-25T06:28:56;100506.19;;;7.30;67.90
84255;BME280;74400;44.692;18.998;2024-01-25T06:31:25;100482.53;;;7.25;68.34
84255;BME280;74400;44.692;18.998;2024-01-25T06:33:51;100481.25;;;7.35;67.25
84255;BME280;74400;44.692;18.998;2024-01-25T06:36:21;100482.84;;;7.38;68.43
84255;BME280;74400;44.692;18.998;2024-01-25T06:42:49;100497.84;;;7.45;67.81
84255;BME280;74400;44.692;18.998;2024-01-25T06:45:14;100505.22;;;7.32;67.95
84255;BME280;74400;44.692;18.998;2024-01-25T06:47:40;100514.13;;;7.24;68.23
84255;BME280;74400;44.692;18.998;2024-01-25T06:50:06;100508.03;;;7.26;68.12
84255;BME280;74400;44.692;18.998;2024-01-25T06:52:33;100498.06;;;7.41;68.51
84255;BME280;74400;44.692;18.998;2024-01-25T06:59:07;100477.28;;;7.86;66.24
84255;BME280;74400;44.692;18.998;2024-01-25T07:01:32;100469.09;;;7.97;64.86
84255;BME280;74400;44.692;18.998;2024-01-25T07:03:58;100465.16;;;7.90;65.25
84255;BME280;74400;44.692;18.998;2024-01-25T07:06:24;100456.47;;;7.94;65.02
84255;BME280;74400;44.692;18.998;2024-01-25T07:08:49;100455.75;;;7.90;65.47
84255;BME280;74400;44.692;18.998;2024-01-25T07:11:15;100455.66;;;7.92;65.98
84255;BME280;74400;44.692;18.998;2024-01-25T07:13:42;100459.03;;;8.11;65.00
84255;BME280;74400;44.692;18.998;2024-01-25T07:16:08;100473.53;;;8.31;63.80
84255;BME280;74400;44.692;18.998;2024-01-25T07:18:34;100478.22;;;8.40;63.52
84255;BME280;74400;44.692;18.998;2024-01-25T07:20:59;100470.56;;;8.57;63.09
84255;BME280;74400;44.692;18.998;2024-01-25T07:23:25;100459.19;;;8.80;61.56
84255;BME280;74400;44.692;18.998;2024-01-25T07:26:23;100463.88;;;8.89;61.64
84255;BME280;74400;44.692;18.998;2024-01-25T07:28:49;100452.53;;;9.11;61.68
84255;BME280;74400;44.692;18.998;2024-01-25T07:31:19;100454.75;;;9.34;59.67
84255;BME280;74400;44.692;18.998;2024-01-25T07:33:46;100458.97;;;9.35;60.07
84255;BME280;74400;44.692;18.998;2024-01-25T07:36:11;100451.88;;;9.40;60.92
84255;BME280;74400;44.692;18.998;2024-01-25T07:38:39;100447.13;;;9.33;59.34
84255;BME280;74400;44.692;18.998;2024-01-25T07:41:05;100447.00;;;9.18;59.90
84255;BME280;74400;44.692;18.998;2024-01-25T07:43:31;100466.00;;;9.32;60.88
84255;BME280;74400;44.692;18.998;2024-01-25T07:45:57;100458.31;;;9.14;61.74
84255;BME280;74400;44.692;18.998;2024-01-25T07:48:23;100472.53;;;9.04;62.25
84255;BME280;74400;44.692;18.998;2024-01-25T07:50:49;100475.41;;;8.98;62.68
84255;BME280;74400;44.692;18.998;2024-01-25T07:53:15;100461.66;;;8.99;61.28
84255;BME280;74400;44.692;18.998;2024-01-25T07:55:43;100476.00;;;9.03;60.92
84255;BME280;74400;44.692;18.998;2024-01-25T07:58:10;100475.75;;;9.08;61.41
84255;BME280;74400;44.692;18.998;2024-01-25T08:01:12;100464.00;;;9.21;62.50
84255;BME280;74400;44.692;18.998;2024-01-25T08:03:42;100462.38;;;9.36;60.86
84255;BME280;74400;44.692;18.998;2024-01-25T08:06:08;100456.78;;;9.61;61.13
84255;BME280;74400;44.692;18.998;2024-01-25T08:08:34;100469.88;;;9.72;59.72
84255;BME280;74400;44.692;18.998;2024-01-25T08:11:03;100472.25;;;9.92;60.24
84255;BME280;74400;44.692;18.998;2024-01-25T08:13:34;100476.69;;;10.20;58.28
84255;BME280;74400;44.692;18.998;2024-01-25T08:16:24;100483.59;;;10.51;57.07
84255;BME280;74400;44.692;18.998;2024-01-25T08:18:55;100497.19;;;10.83;55.94
84255;BME280;74400;44.692;18.998;2024-01-25T08:21:21;100490.66;;;11.22;55.19
84255;BME280;74400;44.692;18.998;2024-01-25T08:23:47;100502.16;;;11.45;53.13
84255;BME280;74400;44.692;18.998;2024-01-25T08:29:49;100506.78;;;11.83;51.95
84255;BME280;74400;44.692;18.998;2024-01-25T08:32:15;100499.22;;;11.80;50.00
84255;BME280;74400;44.692;18.998;2024-01-25T08:34:40;100511.97;;;12.10;51.25
84255;BME280;74400;44.692;18.998;2024-01-25T08:37:06;100523.50;;;12.04;50.49
84255;BME280;74400;44.692;18.998;2024-01-25T08:39:32;100527.47;;;11.96;50.21
84255;BME280;74400;44.692;18.998;2024-01-25T08:42:05;100523.63;;;11.74;50.66
84255;BME280;74400;44.692;18.998;2024-01-25T08:44:32;100521.03;;;11.74;51.21
84255;BME280;74400;44.692;18.998;2024-01-25T08:46:58;100522.41;;;11.65;51.35
84255;BME280;74400;44.692;18.998;2024-01-25T08:49:23;100522.59;;;11.62;51.33
84255;BME280;74400;44.692;18.998;2024-01-25T08:51:49;100528.41;;;11.66;51.69
84255;BME280;74400;44.692;18.998;2024-01-25T08:54:15;100518.94;;;11.66;51.79
84255;BME280;74400;44.692;18.998;2024-01-25T08:56:41;100530.69;;;11.56;50.68
84255;BME280;74400;44.692;18.998;2024-01-25T08:59:07;100536.56;;;11.58;50.95
84255;BME280;74400;44.692;18.998;2024-01-25T09:01:32;100536.56;;;11.44;54.85
84255;BME280;74400;44.692;18.998;2024-01-25T09:03:58;100531.44;;;11.14;56.74
84255;BME280;74400;44.692;18.998;2024-01-25T09:06:29;100542.50;;;10.86;57.25
84255;BME280;74400;44.692;18.998;2024-01-25T09:08:55;100545.75;;;10.74;57.30
84255;BME280;74400;44.692;18.998;2024-01-25T09:11:21;100539.88;;;10.72;57.42
84255;BME280;74400;44.692;18.998;2024-01-25T09:13:47;100548.19;;;10.77;57.31
84255;BME280;74400;44.692;18.998;2024-01-25T09:16:13;100548.47;;;10.87;57.25
84255;BME280;74400;44.692;18.998;2024-01-25T09:18:39;100553.03;;;10.81;56.80
84255;BME280;74400;44.692;18.998;2024-01-25T09:21:05;100548.44;;;10.72;57.63
84255;BME280;74400;44.692;18.998;2024-01-25T09:23:31;100550.91;;;10.74;56.93
84255;BME280;74400;44.692;18.998;2024-01-25T09:25:57;100552.91;;;10.69;57.43
84255;BME280;74400;44.692;18.998;2024-01-25T09:32:46;100558.63;;;10.74;57.11
84255;BME280;74400;44.692;18.998;2024-01-25T09:35:11;100563.69;;;10.75;56.94
84255;BME280;74400;44.692;18.998;2024-01-25T09:37:37;100569.25;;;10.68;57.86
84255;BME280;74400;44.692;18.998;2024-01-25T09:40:04;100565.75;;;10.69;57.71
84255;BME280;74400;44.692;18.998;2024-01-25T09:42:29;100574.06;;;10.74;57.77
84255;BME280;74400;44.692;18.998;2024-01-25T09:44:55;100572.06;;;10.79;56.23
84255;BME280;74400;44.692;18.998;2024-01-25T09:47:21;100578.53;;;10.86;56.02
84255;BME280;74400;44.692;18.998;2024-01-25T09:49:48;100578.38;;;10.89;55.66
84255;BME280;74400;44.692;18.998;2024-01-25T09:52:14;100598.09;;;11.04;55.25
84255;BME280;74400;44.692;18.998;2024-01-25T09:54:43;100605.22;;;10.99;55.22
84255;BME280;74400;44.692;18.998;2024-01-25T09:57:14;100598.09;;;11.04;54.65
84255;BME280;74400;44.692;18.998;2024-01-25T09:59:44;100588.53;;;11.06;54.79
84255;BME280;74400;44.692;18.998;2024-01-25T10:02:18;100591.44;;;11.00;54.26
84255;BME280;74400;44.692;18.998;2024-01-25T10:07:14;100599.53;;;10.78;54.70
84255;BME280;74400;44.692;18.998;2024-01-25T10:09:41;100599.94;;;10.87;55.22
84255;BME280;74400;44.692;18.998;2024-01-25T10:12:08;100593.81;;;10.89;54.22
84255;BME280;74400;44.692;18.998;2024-01-25T10:14:33;100594.66;;;10.74;55.45
84255;BME280;74400;44.692;18.998;2024-01-25T10:21:18;100588.09;;;10.84;55.79
84255;BME280;74400;44.692;18.998;2024-01-25T10:24:23;100589.22;;;11.24;54.28
84255;BME280;74400;44.692;18.998;2024-01-25T10:26:59;100590.03;;;11.55;54.31
84255;BME280;74400;44.692;18.998;2024-01-25T10:29:26;100592.81;;;11.80;53.66
84255;BME280;74400;44.692;18.998;2024-01-25T10:31:52;100588.72;;;12.06;52.61
84255;BME280;74400;44.692;18.998;2024-01-25T10:34:18;100587.50;;;12.12;52.60
84255;BME280;74400;44.692;18.998;2024-01-25T10:36:46;100575.78;;;12.20;51.83
84255;BME280;74400;44.692;18.998;2024-01-25T10:39:12;100573.03;;;12.09;52.31
84255;BME280;74400;44.692;18.998;2024-01-25T10:41:47;100570.75;;;11.90;52.97
84255;BME280;74400;44.692;18.998;2024-01-25T10:44:14;100573.91;;;11.81;53.28
84255;BME280;74400;44.692;18.998;2024-01-25T10:46:40;100579.13;;;11.80;53.09
84255;BME280;74400;44.692;18.998;2024-01-25T10:49:08;100574.78;;;11.80;53.37
84255;BME280;74400;44.692;18.998;2024-01-25T10:51:34;100573.88;;;11.67;54.25
84255;BME280;74400;44.692;18.998;2024-01-25T10:54:01;100571.19;;;11.54;54.21
84255;BME280;74400;44.692;18.998;2024-01-25T10:56:27;100570.06;;;11.44;54.25
84255;BME280;74400;44.692;18.998;2024-01-25T10:58:53;100572.16;;;11.37;55.18
84255;BME280;74400;44.692;18.998;2024-01-25T11:01:19;100582.94;;;11.44;54.80
84255;BME280;74400;44.692;18.998;2024-01-25T11:03:46;100579.44;;;11.45;54.50
84255;BME280;74400;44.692;18.998;2024-01-25T11:06:52;100572.88;;;11.39;55.72
84255;BME280;74400;44.692;18.998;2024-01-25T11:09:19;100572.47;;;11.47;55.50
84255;BME280;74400;44.692;18.998;2024-01-25T11:11:47;100560.13;;;11.52;55.64
84255;BME280;74400;44.692;18.998;2024-01-25T11:14:15;100558.19;;;11.56;55.07
84255;BME280;74400;44.692;18.998;2024-01-25T11:19:49;100554.59;;;11.44;55.47
84255;BME280;74400;44.692;18.998;2024-01-25T11:22:19;100563.72;;;11.50;55.85
84255;BME280;74400;44.692;18.998;2024-01-25T11:24:46;100550.75;;;11.51;55.53
84255;BME280;74400;44.692;18.998;2024-01-25T11:27:14;100565.91;;;11.42;55.53
84255;BME280;74400;44.692;18.998;2024-01-25T11:29:41;100560.88;;;11.40;55.85
84255;BME280;74400;44.692;18.998;2024-01-25T11:32:09;100555.16;;;11.49;56.49
84255;BME280;74400;44.692;18.998;2024-01-25T11:34:34;100553.88;;;11.42;56.12
84255;BME280;74400;44.692;18.998;2024-01-25T11:37:00;100550.16;;;11.46;56.20
84255;BME280;74400;44.692;18.998;2024-01-25T11:39:26;100536.75;;;11.55;55.50
84255;BME280;74400;44.692;18.998;2024-01-25T11:41:52;100535.84;;;11.56;54.81
84255;BME280;74400;44.692;18.998;2024-01-25T11:44:18;100528.13;;;11.56;54.83
84255;BME280;74400;44.692;18.998;2024-01-25T11:46:44;100525.91;;;11.64;56.10
84255;BME280;74400;44.692;18.998;2024-01-25T11:49:10;100520.75;;;11.64;55.81
84255;BME280;74400;44.692;18.998;2024-01-25T11:51:36;100512.75;;;11.69;55.24
84255;BME280;74400;44.692;18.998;2024-01-25T11:54:01;100507.72;;;11.82;55.03
84255;BME280;74400;44.692;18.998;2024-01-25T11:56:33;100514.84;;;11.77;55.25
84255;BME280;74400;44.692;18.998;2024-01-25T11:58:59;100507.44;;;11.72;54.78
84255;BME280;74400;44.692;18.998;2024-01-25T12:01:26;100502.28;;;11.72;54.97
84255;BME280;74400;44.692;18.998;2024-01-25T12:03:53;100505.13;;;11.68;54.47
84255;BME280;74400;44.692;18.998;2024-01-25T12:10:04;100491.78;;;11.61;55.48
84255;BME280;74400;44.692;18.998;2024-01-25T12:12:30;100493.34;;;11.63;55.75
84255;BME280;74400;44.692;18.998;2024-01-25T12:15:17;100489.09;;;11.77;55.02
84255;BME280;74400;44.692;18.998;2024-01-25T12:17:44;100493.19;;;11.81;54.82
84255;BME280;74400;44.692;18.998;2024-01-25T12:20:14;100472.63;;;11.79;55.13
84255;BME280;74400;44.692;18.998;2024-01-25T12:22:41;100474.44;;;11.77;54.58
84255;BME280;74400;44.692;18.998;2024-01-25T12:25:10;100472.63;;;11.79;55.32
84255;BME280;74400;44.692;18.998;2024-01-25T12:27:40;100469.22;;;11.79;55.60
84255;BME280;74400;44.692;18.998;2024-01-25T12:30:07;100471.97;;;11.76;55.10
84255;BME280;74400;44.692;18.998;2024-01-25T12:32:35;100473.44;;;11.80;54.71
84255;BME280;74400;44.692;18.998;2024-01-25T12:35:01;100470.94;;;11.78;55.37
84255;BME280;74400;44.692;18.998;2024-01-25T12:37:27;100471.06;;;11.77;56.10
84255;BME280;74400;44.692;18.998;2024-01-25T12:39:53;100474.28;;;11.80;54.49
84255;BME280;74400;44.692;18.998;2024-01-25T12:42:20;100465.56;;;11.83;54.65
84255;BME280;74400;44.692;18.998;2024-01-25T12:44:46;100459.84;;;11.92;54.78
84255;BME280;74400;44.692;18.998;2024-01-25T12:50:53;100462.81;;;12.40;54.43
84255;BME280;74400;44.692;18.998;2024-01-25T12:53:23;100454.28;;;12.52;53.97
84255;BME280;74400;44.692;18.998;2024-01-25T12:55:50;100454.41;;;12.63;53.96
84255;BME280;74400;44.692;18.998;2024-01-25T12:58:17;100447.91;;;12.58;53.83
84255;BME280;74400;44.692;18.998;2024-01-25T13:00:46;100452.94;;;12.46;53.66
84255;BME280;74400;44.692;18.998;2024-01-25T13:03:12;100460.78;;;12.45;54.30
84255;BME280;74400;44.692;18.998;2024-01-25T13:05:39;100448.44;;;12.36;53.45
84255;BME280;74400;44.692;18.998;2024-01-25T13:08:06;100447.19;;;12.29;53.50
84255;BME280;74400;44.692;18.998;2024-01-25T13:10:32;100445.22;;;12.19;54.62
84255;BME280;74400;44.692;18.998;2024-01-25T13:13:01;100442.56;;;12.07;55.46
84255;BME280;74400;44.692;18.998;2024-01-25T13:15:28;100438.28;;;11.93;56.05
84255;BME280;74400;44.692;18.998;2024-01-25T13:17:56;100450.81;;;11.85;55.63
84255;BME280;74400;44.692;18.998;2024-01-25T13:20:24;100452.00;;;11.79;55.98
84255;BME280;74400;44.692;18.998;2024-01-25T13:22:49;100454.59;;;11.79;55.42
84255;BME280;74400;44.692;18.998;2024-01-25T13:25:15;100456.88;;;11.84;55.81
84255;BME280;74400;44.692;18.998;2024-01-25T13:27:41;100458.91;;;11.79;55.79
84255;BME280;74400;44.692;18.998;2024-01-25T13:30:08;100452.75;;;11.81;55.22
84255;BME280;74400;44.692;18.998;2024-01-25T13:32:37;100452.56;;;11.84;55.90
84255;BME280;74400;44.692;18.998;2024-01-25T13:35:36;100450.63;;;11.88;56.52